createdAt,value
2018-09-06T00:00:24.876Z,32.50
2018-09-06T00:01:24.855Z,32.80
2018-09-06T00:02:24.802Z,34.50
2018-09-06T00:03:24.757Z,35.00
2018-09-06T00:04:24.723Z,33.60
2018-09-06T00:05:24.689Z,33.70
2018-09-06T00:06:24.681Z,34.50
2018-09-06T00:07:24.617Z,33.30
2018-09-06T00:08:24.577Z,34.80
2018-09-06T00:09:24.538Z,34.70
2018-09-06T00:10:24.504Z,34.80
2018-09-06T00:11:24.494Z,36.10
2018-09-06T00:12:24.440Z,37.10
2018-09-06T00:13:24.399Z,37.90
2018-09-06T00:14:24.362Z,36.20
2018-09-06T00:15:24.337Z,35.70
2018-09-06T00:16:24.371Z,37.80
2018-09-06T00:17:24.249Z,38.60
2018-09-06T00:18:35.314Z,38.30
2018-09-06T00:19:24.175Z,39.00
2018-09-06T00:20:24.144Z,39.50
2018-09-06T00:21:24.134Z,40.10
2018-09-06T00:22:24.073Z,40.20
2018-09-06T00:23:24.038Z,40.40
2018-09-06T00:24:23.998Z,40.50
2018-09-06T00:25:23.961Z,40.10
2018-09-06T00:26:23.949Z,40.00
2018-09-06T00:27:23.883Z,39.20
2018-09-06T00:28:23.857Z,41.20
2018-09-06T00:29:23.820Z,40.00
2018-09-06T00:30:23.786Z,40.80
2018-09-06T00:31:23.748Z,39.90
2018-09-06T00:32:23.738Z,40.30
2018-09-06T00:33:23.669Z,40.20
2018-09-06T00:34:23.631Z,39.80
2018-09-06T00:35:23.602Z,40.70
2018-09-06T00:36:23.589Z,40.90
2018-09-06T00:37:23.521Z,40.30
2018-09-06T00:38:23.502Z,40.60
2018-09-06T00:39:23.454Z,40.50
2018-09-06T00:40:23.421Z,39.90
2018-09-06T00:41:23.381Z,40.60
2018-09-06T00:42:23.372Z,40.10
2018-09-06T00:43:23.310Z,40.80
2018-09-06T00:44:23.279Z,41.70
2018-09-06T00:45:23.241Z,39.80
2018-09-06T00:46:23.193Z,40.30
2018-09-06T00:47:23.188Z,40.30
2018-09-06T00:48:23.126Z,39.50
2018-09-06T00:49:23.094Z,40.50
2018-09-06T00:50:23.058Z,39.40
2018-09-06T00:51:23.011Z,40.00
2018-09-06T00:52:23.001Z,39.80
2018-09-06T00:53:22.949Z,39.90
2018-09-06T00:54:22.909Z,40.40
2018-09-06T00:55:22.896Z,40.10
2018-09-06T00:56:22.839Z,39.60
2018-09-06T00:57:22.824Z,38.90
2018-09-06T00:58:32.855Z,39.70
2018-09-06T00:59:22.736Z,38.40
2018-09-06T01:00:22.697Z,39.00
2018-09-06T01:01:22.657Z,38.90
2018-09-06T01:02:22.619Z,37.40
2018-09-06T01:03:22.606Z,37.20
2018-09-06T01:04:22.547Z,37.90
2018-09-06T01:05:22.513Z,36.60
2018-09-06T01:06:22.475Z,36.50
2018-09-06T01:07:22.431Z,35.40
2018-09-06T01:08:22.420Z,36.50
2018-09-06T01:09:22.356Z,36.70
2018-09-06T01:10:22.322Z,35.20
2018-09-06T01:11:22.289Z,36.20
2018-09-06T01:12:22.258Z,35.20
2018-09-06T01:13:22.261Z,35.00
2018-09-06T01:14:22.184Z,35.90
2018-09-06T01:15:22.152Z,35.90
2018-09-06T01:16:22.100Z,36.20
2018-09-06T01:17:22.065Z,35.10
2018-09-06T01:18:22.051Z,35.60
2018-09-06T01:19:22.001Z,34.80
2018-09-06T01:20:21.967Z,35.40
2018-09-06T01:21:21.919Z,35.60
2018-09-06T01:22:21.888Z,36.30
2018-09-06T01:23:21.884Z,35.90
2018-09-06T01:24:21.824Z,36.40
2018-09-06T01:25:21.782Z,34.70
2018-09-06T01:26:21.750Z,35.70
2018-09-06T01:27:21.701Z,36.70
2018-09-06T01:28:21.663Z,35.20
2018-09-06T01:29:21.655Z,35.10
2018-09-06T01:30:21.593Z,36.30
2018-09-06T01:31:21.564Z,35.10
2018-09-06T01:32:21.532Z,35.00
2018-09-06T01:33:21.518Z,35.40
2018-09-06T01:34:21.454Z,34.10
2018-09-06T01:35:21.407Z,34.30
2018-09-06T01:36:21.374Z,32.00
2018-09-06T01:37:21.344Z,33.60
2018-09-06T01:38:30.965Z,32.40
2018-09-06T01:39:21.262Z,33.00
2018-09-06T01:40:21.230Z,32.70
2018-09-06T01:41:21.201Z,32.10
2018-09-06T01:42:21.160Z,32.90
2018-09-06T01:43:21.128Z,31.50
2018-09-06T01:44:21.113Z,31.00
2018-09-06T01:45:21.047Z,30.50
2018-09-06T01:46:21.013Z,32.00
2018-09-06T01:47:20.970Z,31.60
2018-09-06T01:48:20.938Z,30.10
2018-09-06T01:49:20.935Z,31.20
2018-09-06T01:50:20.871Z,30.30
2018-09-06T01:51:20.827Z,30.30
2018-09-06T01:52:20.798Z,30.70
2018-09-06T01:53:20.765Z,30.10
2018-09-06T01:54:20.730Z,29.80
2018-09-06T01:55:20.720Z,28.80
2018-09-06T01:56:20.658Z,29.20
2018-09-06T01:57:20.610Z,30.40
2018-09-06T01:58:20.570Z,29.70
2018-09-06T01:59:30.958Z,30.70
2018-09-06T02:00:20.529Z,29.20
2018-09-06T02:01:20.472Z,30.40
2018-09-06T02:02:20.434Z,29.80
2018-09-06T02:03:20.397Z,31.60
2018-09-06T02:04:20.355Z,31.80
2018-09-06T02:05:20.371Z,32.20
2018-09-06T02:06:20.335Z,31.60
2018-09-06T02:07:20.248Z,31.80
2018-09-06T02:08:20.243Z,33.00
2018-09-06T02:09:20.314Z,33.90
2018-09-06T02:10:20.163Z,32.50
2018-09-06T02:11:20.110Z,32.80
2018-09-06T02:12:20.071Z,34.20
2018-09-06T02:13:20.032Z,36.00
2018-09-06T02:14:19.997Z,35.40
2018-09-06T02:15:19.953Z,37.40
2018-09-06T02:16:19.941Z,34.50
2018-09-06T02:17:19.878Z,35.10
2018-09-06T02:18:30.991Z,37.70
2018-09-06T02:19:19.806Z,34.20
2018-09-06T02:20:19.766Z,34.40
2018-09-06T02:21:19.769Z,34.20
2018-09-06T02:22:19.703Z,35.20
2018-09-06T02:23:19.664Z,34.50
2018-09-06T02:24:19.667Z,35.70
2018-09-06T02:25:19.582Z,37.30
2018-09-06T02:26:19.564Z,38.60
2018-09-06T02:27:19.508Z,35.70
2018-09-06T02:28:19.495Z,38.20
2018-09-06T02:29:19.440Z,37.40
2018-09-06T02:30:19.409Z,38.90
2018-09-06T02:31:19.392Z,38.80
2018-09-06T02:32:19.330Z,39.90
2018-09-06T02:33:19.292Z,41.90
2018-09-06T02:34:19.252Z,39.50
2018-09-06T02:35:19.225Z,42.20
2018-09-06T02:36:19.209Z,40.10
2018-09-06T02:37:19.142Z,41.60
2018-09-06T02:38:19.106Z,40.60
2018-09-06T02:39:19.068Z,40.60
2018-09-06T02:40:19.029Z,41.50
2018-09-06T02:41:19.028Z,41.60
2018-09-06T02:42:18.957Z,42.40
2018-09-06T02:43:18.925Z,42.40
2018-09-06T02:44:18.887Z,42.00
2018-09-06T02:45:18.842Z,43.00
2018-09-06T02:46:18.814Z,46.10
2018-09-06T02:47:18.785Z,45.20
2018-09-06T02:48:18.731Z,45.00
2018-09-06T02:49:18.699Z,43.90
2018-09-06T02:50:18.664Z,44.80
2018-09-06T02:51:18.619Z,44.10
2018-09-06T02:52:18.614Z,46.90
2018-09-06T02:53:18.551Z,51.50
2018-09-06T02:54:18.522Z,50.30
2018-09-06T02:55:18.477Z,49.70
2018-09-06T02:56:18.445Z,46.90
2018-09-06T02:57:28.049Z,52.50
2018-09-06T02:58:18.359Z,52.40
2018-09-06T02:59:18.327Z,57.00
2018-09-06T03:00:18.295Z,49.60
2018-09-06T03:01:18.253Z,49.60
2018-09-06T03:02:18.221Z,49.40
2018-09-06T03:03:18.198Z,50.30
2018-09-06T03:04:18.134Z,51.40
2018-09-06T03:05:18.104Z,52.20
2018-09-06T03:06:18.064Z,55.10
2018-09-06T03:07:18.022Z,55.80
2018-09-06T03:08:18.008Z,54.20
2018-09-06T03:09:17.955Z,51.80
2018-09-06T03:10:17.913Z,53.30
2018-09-06T03:11:17.886Z,60.30
2018-09-06T03:12:17.845Z,58.90
2018-09-06T03:13:17.855Z,65.80
2018-09-06T03:14:17.772Z,60.80
2018-09-06T03:15:17.744Z,66.90
2018-09-06T03:16:17.696Z,67.30
2018-09-06T03:17:28.071Z,72.40
2018-09-06T03:18:17.628Z,67.10
2018-09-06T03:19:17.603Z,66.60
2018-09-06T03:20:17.547Z,65.60
2018-09-06T03:21:17.511Z,70.00
2018-09-06T03:22:17.473Z,65.30
2018-09-06T03:23:17.441Z,73.40
2018-09-06T03:24:17.429Z,72.60
2018-09-06T03:25:17.352Z,75.40
2018-09-06T03:26:17.316Z,74.00
2018-09-06T03:27:17.281Z,72.80
2018-09-06T03:28:17.241Z,73.60
2018-09-06T03:29:17.238Z,75.20
2018-09-06T03:30:17.190Z,83.70
2018-09-06T03:31:17.134Z,78.70
2018-09-06T03:32:17.098Z,75.90
2018-09-06T03:33:17.055Z,76.60
2018-09-06T03:34:17.045Z,78.80
2018-09-06T03:35:16.990Z,76.10
2018-09-06T03:36:16.955Z,81.30
2018-09-06T03:37:25.118Z,81.30
2018-09-06T03:38:16.870Z,81.30
2018-09-06T03:39:16.839Z,76.70
2018-09-06T03:40:16.828Z,88.50
2018-09-06T03:41:16.767Z,88.60
2018-09-06T03:42:16.724Z,86.90
2018-09-06T03:43:16.687Z,91.00
2018-09-06T03:44:16.649Z,86.70
2018-09-06T03:45:16.643Z,88.90
2018-09-06T03:46:16.569Z,84.50
2018-09-06T03:47:16.545Z,85.90
2018-09-06T03:48:16.496Z,88.30
2018-09-06T03:49:16.467Z,92.10
2018-09-06T03:50:16.443Z,97.60
2018-09-06T03:51:16.391Z,94.40
2018-09-06T03:52:16.353Z,89.90
2018-09-06T03:53:16.312Z,94.60
2018-09-06T03:54:16.283Z,87.00
2018-09-06T03:55:16.232Z,90.20
2018-09-06T03:56:16.218Z,89.50
2018-09-06T03:57:16.161Z,98.90
2018-09-06T03:58:16.117Z,89.30
2018-09-06T03:59:16.093Z,82.90
2018-09-06T04:00:16.051Z,84.90
2018-09-06T04:01:16.033Z,84.00
2018-09-06T04:02:15.975Z,102.30
2018-09-06T04:03:15.930Z,107.00
2018-09-06T04:04:15.892Z,112.10
2018-09-06T04:05:15.865Z,112.30
2018-09-06T04:06:15.848Z,124.50
2018-09-06T04:07:15.777Z,112.90
2018-09-06T04:08:15.739Z,122.60
2018-09-06T04:09:15.701Z,134.80
2018-09-06T04:10:15.665Z,132.90
2018-09-06T04:11:15.639Z,137.20
2018-09-06T04:12:15.624Z,157.10
2018-09-06T04:13:15.563Z,167.00
2018-09-06T04:14:15.521Z,164.00
2018-09-06T04:15:15.509Z,165.40
2018-09-06T04:16:15.444Z,152.40
2018-09-06T04:17:22.976Z,177.90
2018-09-06T04:18:15.376Z,143.10
2018-09-06T04:19:15.325Z,168.00
2018-09-06T04:20:15.291Z,141.10
2018-09-06T04:21:15.257Z,148.00
2018-09-06T04:22:15.247Z,179.80
2018-09-06T04:23:15.181Z,134.10
2018-09-06T04:24:15.187Z,141.00
2018-09-06T04:25:15.101Z,162.60
2018-09-06T04:26:15.076Z,156.60
2018-09-06T04:27:15.047Z,122.40
2018-09-06T04:28:14.989Z,134.00
2018-09-06T04:29:14.959Z,145.30
2018-09-06T04:30:14.916Z,153.30
2018-09-06T04:31:14.884Z,148.90
2018-09-06T04:32:14.868Z,163.30
2018-09-06T04:33:14.797Z,144.80
2018-09-06T04:34:14.761Z,154.00
2018-09-06T04:35:14.796Z,164.80
2018-09-06T04:36:14.824Z,174.20
2018-09-06T04:37:24.219Z,160.00
2018-09-06T04:38:14.615Z,176.70
2018-09-06T04:39:14.577Z,166.50
2018-09-06T04:40:14.538Z,179.70
2018-09-06T04:41:14.499Z,206.50
2018-09-06T04:42:14.467Z,210.60
2018-09-06T04:43:14.444Z,220.40
2018-09-06T04:44:14.386Z,202.50
2018-09-06T04:45:14.340Z,181.30
2018-09-06T04:46:14.310Z,190.50
2018-09-06T04:47:14.276Z,191.50
2018-09-06T04:48:14.265Z,210.60
2018-09-06T04:49:14.192Z,266.70
2018-09-06T04:50:14.158Z,248.50
2018-09-06T04:51:14.134Z,240.40
2018-09-06T04:52:14.089Z,214.20
2018-09-06T04:53:14.069Z,265.10
2018-09-06T04:54:14.011Z,226.80
2018-09-06T04:55:14.009Z,239.70
2018-09-06T04:56:13.931Z,242.80
2018-09-06T04:57:13.891Z,257.10
2018-09-06T04:58:13.878Z,231.80
2018-09-06T04:59:13.820Z,223.60
2018-09-06T05:00:13.787Z,215.50
2018-09-06T05:01:13.745Z,233.00
2018-09-06T05:02:13.718Z,212.70
2018-09-06T05:03:13.699Z,200.50
2018-09-06T05:04:13.639Z,190.30
2018-09-06T05:05:13.593Z,200.50
2018-09-06T05:06:13.563Z,204.40
2018-09-06T05:07:13.515Z,194.60
2018-09-06T05:08:13.473Z,182.00
2018-09-06T05:09:13.459Z,186.00
2018-09-06T05:10:13.401Z,186.50
2018-09-06T05:11:13.373Z,191.50
2018-09-06T05:12:13.332Z,206.90
2018-09-06T05:13:13.294Z,202.20
2018-09-06T05:14:13.285Z,207.50
2018-09-06T05:15:13.211Z,245.00
2018-09-06T05:16:13.173Z,209.60
2018-09-06T05:17:13.134Z,219.90
2018-09-06T05:18:13.099Z,228.50
2018-09-06T05:19:13.090Z,222.80
2018-09-06T05:20:13.034Z,231.40
2018-09-06T05:21:12.984Z,227.70
2018-09-06T05:22:12.950Z,225.20
2018-09-06T05:23:12.916Z,211.80
2018-09-06T05:24:12.905Z,238.00
2018-09-06T05:25:12.840Z,221.10
2018-09-06T05:26:12.801Z,226.60
2018-09-06T05:27:12.761Z,222.60
2018-09-06T05:28:12.719Z,210.70
2018-09-06T05:29:12.705Z,278.50
2018-09-06T05:30:12.646Z,263.00
2018-09-06T05:31:12.619Z,253.20
2018-09-06T05:32:12.577Z,212.40
2018-09-06T05:33:12.538Z,205.10
2018-09-06T05:34:12.527Z,257.90
2018-09-06T05:35:12.484Z,222.50
2018-09-06T05:36:12.469Z,223.90
2018-09-06T05:37:12.390Z,209.90
2018-09-06T05:38:12.353Z,263.40
2018-09-06T05:39:12.327Z,213.50
2018-09-06T05:40:12.268Z,243.50
2018-09-06T05:41:12.230Z,241.00
2018-09-06T05:42:12.201Z,237.60
2018-09-06T05:43:12.189Z,231.10
2018-09-06T05:44:12.129Z,280.90
2018-09-06T05:45:12.089Z,215.00
2018-09-06T05:46:12.050Z,261.50
2018-09-06T05:47:12.005Z,206.80
2018-09-06T05:48:11.988Z,204.10
2018-09-06T05:49:11.930Z,189.50
2018-09-06T05:50:11.893Z,178.70
2018-09-06T05:51:11.862Z,167.60
2018-09-06T05:52:11.822Z,167.90
2018-09-06T05:53:11.810Z,172.70
2018-09-06T05:54:11.741Z,158.50
2018-09-06T05:55:11.708Z,148.80
2018-09-06T05:56:11.677Z,155.20
2018-09-06T05:57:11.635Z,150.70
2018-09-06T05:58:11.619Z,142.20
2018-09-06T05:59:11.552Z,147.00
2018-09-06T06:00:11.521Z,136.00
2018-09-06T06:01:11.477Z,128.10
2018-09-06T06:02:11.439Z,118.60
2018-09-06T06:03:11.434Z,107.90
2018-09-06T06:04:11.371Z,109.70
2018-09-06T06:05:11.385Z,118.40
2018-09-06T06:06:11.297Z,107.30
2018-09-06T06:07:11.252Z,99.50
2018-09-06T06:08:11.240Z,104.40
2018-09-06T06:09:11.185Z,115.00
2018-09-06T06:10:11.146Z,99.80
2018-09-06T06:11:11.105Z,105.00
2018-09-06T06:12:11.119Z,100.70
2018-09-06T06:13:11.055Z,101.50
2018-09-06T06:14:10.989Z,97.00
2018-09-06T06:15:10.959Z,94.20
2018-09-06T06:16:10.922Z,93.00
2018-09-06T06:17:21.265Z,89.80
2018-09-06T06:18:10.840Z,85.60
2018-09-06T06:19:10.825Z,84.50
2018-09-06T06:20:10.764Z,83.10
2018-09-06T06:21:10.733Z,83.60
2018-09-06T06:22:10.698Z,80.60
2018-09-06T06:23:10.656Z,86.20
2018-09-06T06:24:10.634Z,88.40
2018-09-06T06:25:10.584Z,88.60
2018-09-06T06:26:10.623Z,96.30
2018-09-06T06:27:10.508Z,91.50
2018-09-06T06:28:10.468Z,101.20
2018-09-06T06:29:10.454Z,84.10
2018-09-06T06:30:10.395Z,75.80
2018-09-06T06:31:10.350Z,86.60
2018-09-06T06:32:10.314Z,85.30
2018-09-06T06:33:10.282Z,73.10
2018-09-06T06:34:10.246Z,72.30
2018-09-06T06:35:10.229Z,74.50
2018-09-06T06:36:10.172Z,81.10
2018-09-06T06:37:10.126Z,69.40
2018-09-06T06:38:10.087Z,63.90
2018-09-06T06:39:10.057Z,57.80
2018-09-06T06:40:10.046Z,60.80
2018-09-06T06:41:09.975Z,60.00
2018-09-06T06:42:09.937Z,63.20
2018-09-06T06:43:09.906Z,59.30
2018-09-06T06:44:09.867Z,54.30
2018-09-06T06:45:09.832Z,52.50
2018-09-06T06:46:09.816Z,57.30
2018-09-06T06:47:09.757Z,64.30
2018-09-06T06:48:09.725Z,64.40
2018-09-06T06:49:09.679Z,62.70
2018-09-06T06:50:09.646Z,60.50
2018-09-06T06:51:09.715Z,64.10
2018-09-06T06:52:09.566Z,70.70
2018-09-06T06:53:19.813Z,64.90
2018-09-06T06:54:09.488Z,58.50
2018-09-06T06:55:09.460Z,58.70
2018-09-06T06:56:09.447Z,61.10
2018-09-06T06:57:09.383Z,63.00
2018-09-06T06:58:09.347Z,68.00
2018-09-06T06:59:09.302Z,63.20
2018-09-06T07:00:09.266Z,64.00
2018-09-06T07:01:09.252Z,70.10
2018-09-06T07:02:09.190Z,71.40
2018-09-06T07:03:09.165Z,70.00
2018-09-06T07:04:09.172Z,71.70
2018-09-06T07:05:09.083Z,71.50
2018-09-06T07:06:09.049Z,67.00
2018-09-06T07:07:09.038Z,62.20
2018-09-06T07:08:08.966Z,68.80
2018-09-06T07:09:08.937Z,71.30
2018-09-06T07:10:08.901Z,78.70
2018-09-06T07:11:08.856Z,77.80
2018-09-06T07:12:08.840Z,79.20
2018-09-06T07:13:08.778Z,77.00
2018-09-06T07:14:08.747Z,74.90
2018-09-06T07:15:08.711Z,82.60
2018-09-06T07:16:08.677Z,80.60
2018-09-06T07:17:08.664Z,88.30
2018-09-06T07:18:08.667Z,79.40
2018-09-06T07:19:08.562Z,86.20
2018-09-06T07:20:08.520Z,82.30
2018-09-06T07:21:08.481Z,86.00
2018-09-06T07:22:08.473Z,84.90
2018-09-06T07:23:08.415Z,83.10
2018-09-06T07:24:08.378Z,86.00
2018-09-06T07:25:08.335Z,86.00
2018-09-06T07:26:08.296Z,92.60
2018-09-06T07:27:08.268Z,87.70
2018-09-06T07:28:08.251Z,78.20
2018-09-06T07:29:08.192Z,76.70
2018-09-06T07:30:08.160Z,67.00
2018-09-06T07:31:08.106Z,64.50
2018-09-06T07:32:18.359Z,65.00
2018-09-06T07:33:08.070Z,59.40
2018-09-06T07:34:08.005Z,54.20
2018-09-06T07:35:08.016Z,56.70
2018-09-06T07:36:07.931Z,64.70
2018-09-06T07:37:07.886Z,73.10
2018-09-06T07:38:07.850Z,72.10
2018-09-06T07:39:07.840Z,75.60
2018-09-06T07:40:07.781Z,79.50
2018-09-06T07:41:07.784Z,82.00
2018-09-06T07:42:07.701Z,76.70
2018-09-06T07:43:07.664Z,84.50
2018-09-06T07:44:07.650Z,84.10
2018-09-06T07:45:07.590Z,81.00
2018-09-06T07:46:07.556Z,76.00
2018-09-06T07:47:07.518Z,77.30
2018-09-06T07:48:07.488Z,69.10
2018-09-06T07:49:07.460Z,75.20
2018-09-06T07:50:07.468Z,69.10
2018-09-06T07:51:07.363Z,71.00
2018-09-06T07:52:07.381Z,75.80
2018-09-06T07:53:17.411Z,70.80
2018-09-06T07:54:07.284Z,72.80
2018-09-06T07:55:07.226Z,76.60
2018-09-06T07:56:07.192Z,68.90
2018-09-06T07:57:07.150Z,77.10
2018-09-06T07:58:07.119Z,72.10
2018-09-06T07:59:07.069Z,79.10
2018-09-06T08:00:07.055Z,75.00
2018-09-06T08:01:06.996Z,73.90
2018-09-06T08:02:06.961Z,74.30
2018-09-06T08:03:06.942Z,67.40
2018-09-06T08:04:06.918Z,64.10
2018-09-06T08:05:06.880Z,67.10
2018-09-06T08:06:06.821Z,63.80
2018-09-06T08:07:06.780Z,73.90
2018-09-06T08:08:06.741Z,70.00
2018-09-06T08:09:06.714Z,62.10
2018-09-06T08:10:06.701Z,63.70
2018-09-06T08:11:06.631Z,72.20
2018-09-06T08:12:16.940Z,79.60
2018-09-06T08:13:06.564Z,70.90
2018-09-06T08:14:06.528Z,68.90
2018-09-06T08:15:06.493Z,64.50
2018-09-06T08:16:06.496Z,64.80
2018-09-06T08:17:06.429Z,59.00
2018-09-06T08:18:06.422Z,60.90
2018-09-06T08:19:06.341Z,56.90
2018-09-06T08:20:06.317Z,55.40
2018-09-06T08:21:06.294Z,61.90
2018-09-06T08:22:06.243Z,66.80
2018-09-06T08:23:06.195Z,68.00
2018-09-06T08:24:06.222Z,57.40
2018-09-06T08:25:06.127Z,64.10
2018-09-06T08:26:06.110Z,64.60
2018-09-06T08:27:06.056Z,63.10
2018-09-06T08:28:06.021Z,62.50
2018-09-06T08:29:05.986Z,69.60
2018-09-06T08:30:05.937Z,55.70
2018-09-06T08:31:06.013Z,57.00
2018-09-06T08:32:15.508Z,57.00
2018-09-06T08:33:05.840Z,57.70
2018-09-06T08:34:05.804Z,64.20
2018-09-06T08:35:05.757Z,64.10
2018-09-06T08:36:05.722Z,60.80
2018-09-06T08:37:05.715Z,60.20
2018-09-06T08:38:05.653Z,59.80
2018-09-06T08:39:05.616Z,63.80
2018-09-06T08:40:05.580Z,67.60
2018-09-06T08:41:05.545Z,72.00
2018-09-06T08:42:05.527Z,74.80
2018-09-06T08:43:05.475Z,66.20
2018-09-06T08:44:05.441Z,78.80
2018-09-06T08:45:05.405Z,69.60
2018-09-06T08:46:05.366Z,72.60
2018-09-06T08:47:05.354Z,71.30
2018-09-06T08:48:05.289Z,54.30
2018-09-06T08:49:05.250Z,60.00
2018-09-06T08:50:05.213Z,53.60
2018-09-06T08:51:05.185Z,56.20
2018-09-06T08:52:05.183Z,58.80
2018-09-06T08:53:05.128Z,58.50
2018-09-06T08:54:05.069Z,53.60
2018-09-06T08:55:05.038Z,55.50
2018-09-06T08:56:05.004Z,63.90
2018-09-06T08:57:04.972Z,66.60
2018-09-06T08:58:04.954Z,64.00
2018-09-06T08:59:04.885Z,70.90
2018-09-06T09:00:04.852Z,66.30
2018-09-06T09:01:04.812Z,66.90
2018-09-06T09:02:04.819Z,71.40
2018-09-06T09:03:04.802Z,58.50
2018-09-06T09:04:04.714Z,67.20
2018-09-06T09:05:04.675Z,68.40
2018-09-06T09:06:04.718Z,69.60
2018-09-06T09:07:04.599Z,62.10
2018-09-06T09:08:04.562Z,62.80
2018-09-06T09:09:04.552Z,70.50
2018-09-06T09:10:04.493Z,77.30
2018-09-06T09:11:14.526Z,86.50
2018-09-06T09:12:04.413Z,100.70
2018-09-06T09:13:04.463Z,98.90
2018-09-06T09:14:04.368Z,81.20
2018-09-06T09:15:04.309Z,80.60
2018-09-06T09:16:04.289Z,79.30
2018-09-06T09:17:04.230Z,84.50
2018-09-06T09:18:04.198Z,91.90
2018-09-06T09:19:04.185Z,89.10
2018-09-06T09:20:04.121Z,89.70
2018-09-06T09:21:04.088Z,85.90
2018-09-06T09:22:04.161Z,85.60
2018-09-06T09:23:04.009Z,79.80
2018-09-06T09:24:03.974Z,77.70
2018-09-06T09:25:03.965Z,70.90
2018-09-06T09:26:03.905Z,68.60
2018-09-06T09:27:03.869Z,71.70
2018-09-06T09:28:03.832Z,77.80
2018-09-06T09:29:03.788Z,79.60
2018-09-06T09:30:03.775Z,80.20
2018-09-06T09:31:03.715Z,68.90
2018-09-06T09:32:14.071Z,68.90
2018-09-06T09:33:03.656Z,65.70
2018-09-06T09:34:03.614Z,74.60
2018-09-06T09:35:03.592Z,86.10
2018-09-06T09:36:03.584Z,78.60
2018-09-06T09:37:03.503Z,80.10
2018-09-06T09:38:03.467Z,75.50
2018-09-06T09:39:03.424Z,80.10
2018-09-06T09:40:03.414Z,81.40
2018-09-06T09:41:03.349Z,79.80
2018-09-06T09:42:03.312Z,75.40
2018-09-06T09:43:03.281Z,87.60
2018-09-06T09:44:03.247Z,79.10
2018-09-06T09:45:03.209Z,90.20
2018-09-06T09:47:57.205Z,76.20
2018-09-06T09:48:36.173Z,80.10
2018-09-06T09:49:36.197Z,75.60
2018-09-06T09:50:57.129Z,78.80
2018-09-06T09:51:36.067Z,80.00
2018-09-06T09:52:36.026Z,87.20
2018-09-06T09:53:35.989Z,83.70
2018-09-06T09:54:35.958Z,77.20
2018-09-06T09:55:35.921Z,77.90
2018-09-06T09:56:35.914Z,81.40
2018-09-06T09:57:35.845Z,79.40
2018-09-06T09:58:35.811Z,78.30
2018-09-06T09:59:35.764Z,82.40
2018-09-06T10:00:35.728Z,92.80
2018-09-06T10:01:35.722Z,86.90
2018-09-06T10:02:35.664Z,87.70
2018-09-06T10:03:35.640Z,84.00
2018-09-06T10:04:35.589Z,82.60
2018-09-06T10:05:35.557Z,90.00
2018-09-06T10:06:35.576Z,86.60
2018-09-06T10:07:35.497Z,88.10
2018-09-06T10:08:35.443Z,96.80
2018-09-06T10:09:35.405Z,93.90
2018-09-06T10:10:35.366Z,87.90
2018-09-06T10:11:35.350Z,88.20
2018-09-06T10:12:35.287Z,85.90
2018-09-06T10:13:35.258Z,92.70
2018-09-06T10:14:35.263Z,93.30
2018-09-06T10:15:35.241Z,94.90
2018-09-06T10:16:35.152Z,95.70
2018-09-06T10:17:35.130Z,95.60
2018-09-06T10:18:35.067Z,93.90
2018-09-06T10:19:35.027Z,99.20
2018-09-06T10:20:34.999Z,105.30
2018-09-06T10:21:34.956Z,94.70
2018-09-06T10:22:34.947Z,98.30
2018-09-06T10:23:34.887Z,108.00
2018-09-06T10:24:34.851Z,100.90
2018-09-06T10:25:34.803Z,104.90
2018-09-06T10:26:34.797Z,97.50
2018-09-06T10:27:34.741Z,99.60
2018-09-06T10:28:34.706Z,117.20
2018-09-06T10:29:34.685Z,107.60
2018-09-06T10:30:34.627Z,107.00
2018-09-06T10:31:34.613Z,111.40
2018-09-06T10:32:34.543Z,111.20
2018-09-06T10:33:34.513Z,107.00
2018-09-06T10:34:34.478Z,108.80
2018-09-06T10:35:34.444Z,117.80
2018-09-06T10:36:34.415Z,114.20
2018-09-06T10:37:34.416Z,116.10
2018-09-06T10:38:34.325Z,108.50
2018-09-06T10:39:34.283Z,125.80
2018-09-06T10:40:34.294Z,128.00
2018-09-06T10:41:34.228Z,136.90
2018-09-06T10:42:34.201Z,138.90
2018-09-06T10:43:34.149Z,146.70
2018-09-06T10:44:34.115Z,131.00
2018-09-06T10:45:34.073Z,157.10
2018-09-06T10:46:34.036Z,141.80
2018-09-06T10:47:34.033Z,147.70
2018-09-06T10:48:33.976Z,129.70
2018-09-06T10:49:33.927Z,136.80
2018-09-06T10:50:33.888Z,164.20
2018-09-06T10:51:43.923Z,168.90
2018-09-06T10:52:33.843Z,148.40
2018-09-06T10:53:33.810Z,149.40
2018-09-06T10:54:33.738Z,149.80
2018-09-06T10:55:33.711Z,158.00
2018-09-06T10:56:33.667Z,180.30
2018-09-06T10:57:33.630Z,176.30
2018-09-06T10:58:33.621Z,173.40
2018-09-06T10:59:33.563Z,155.60
2018-09-06T11:00:33.559Z,148.40
2018-09-06T11:01:33.509Z,150.30
2018-09-06T11:02:33.440Z,153.00
2018-09-06T11:03:33.427Z,156.90
2018-09-06T11:04:33.372Z,146.00
2018-09-06T11:05:33.341Z,148.70
2018-09-06T11:06:33.298Z,121.20
2018-09-06T11:07:33.260Z,128.90
2018-09-06T11:08:33.246Z,121.50
2018-09-06T11:09:33.184Z,128.80
2018-09-06T11:10:33.157Z,131.90
2018-09-06T11:11:43.541Z,109.10
2018-09-06T11:12:33.132Z,94.80
2018-09-06T11:13:33.051Z,78.10
2018-09-06T11:14:33.031Z,81.10
2018-09-06T11:15:32.965Z,77.20
2018-09-06T11:16:32.940Z,71.10
2018-09-06T11:17:32.987Z,76.20
2018-09-06T11:18:32.865Z,78.40
2018-09-06T11:19:32.841Z,64.80
2018-09-06T11:20:32.791Z,62.90
2018-09-06T11:21:32.823Z,66.70
2018-09-06T11:22:32.935Z,68.90
2018-09-06T11:23:32.672Z,61.90
2018-09-06T11:24:32.657Z,66.10
2018-09-06T11:25:32.606Z,72.70
2018-09-06T11:26:32.574Z,71.30
2018-09-06T11:27:32.543Z,76.80
2018-09-06T11:28:32.493Z,81.40
2018-09-06T11:29:32.473Z,80.20
2018-09-06T11:30:32.476Z,80.40
2018-09-06T11:31:42.503Z,87.10
2018-09-06T11:32:32.347Z,87.50
2018-09-06T11:33:32.319Z,89.50
2018-09-06T11:34:32.309Z,87.40
2018-09-06T11:35:32.240Z,76.10
2018-09-06T11:36:32.198Z,64.30
2018-09-06T11:37:32.161Z,72.40
2018-09-06T11:38:32.146Z,73.70
2018-09-06T11:39:32.096Z,64.10
2018-09-06T11:40:32.141Z,77.30
2018-09-06T11:41:32.017Z,82.80
2018-09-06T11:42:31.987Z,65.50
2018-09-06T11:43:31.952Z,61.20
2018-09-06T11:44:31.920Z,54.40
2018-09-06T11:45:31.909Z,56.80
2018-09-06T11:46:31.844Z,58.30
2018-09-06T11:47:31.844Z,77.20
2018-09-06T11:48:31.767Z,79.70
2018-09-06T11:49:31.733Z,76.90
2018-09-06T11:50:31.726Z,80.10
2018-09-06T11:51:31.663Z,78.10
2018-09-06T11:52:31.690Z,59.50
2018-09-06T11:53:31.658Z,67.30
2018-09-06T11:54:31.561Z,76.90
2018-09-06T11:55:31.571Z,74.60
2018-09-06T11:56:31.505Z,67.10
2018-09-06T11:57:31.485Z,76.90
2018-09-06T11:58:31.420Z,80.00
2018-09-06T11:59:31.390Z,69.20
2018-09-06T12:00:31.368Z,77.20
2018-09-06T12:01:31.320Z,74.10
2018-09-06T12:02:31.279Z,67.00
2018-09-06T12:03:31.244Z,69.90
2018-09-06T12:04:31.202Z,65.10
2018-09-06T12:05:31.190Z,80.90
2018-09-06T12:06:31.138Z,81.10
2018-09-06T12:07:31.094Z,74.90
2018-09-06T12:08:31.071Z,64.30
2018-09-06T12:09:31.036Z,70.20
2018-09-06T12:10:31.019Z,61.50
2018-09-06T12:11:41.053Z,61.90
2018-09-06T12:12:30.932Z,62.30
2018-09-06T12:13:30.893Z,59.60
2018-09-06T12:14:30.852Z,70.60
2018-09-06T12:15:30.846Z,62.60
2018-09-06T12:16:30.779Z,61.10
2018-09-06T12:17:30.749Z,56.10
2018-09-06T12:18:30.717Z,59.10
2018-09-06T12:19:30.695Z,54.20
2018-09-06T12:20:30.669Z,64.00
2018-09-06T12:21:30.617Z,56.10
2018-09-06T12:22:30.578Z,66.50
2018-09-06T12:23:30.541Z,68.60
2018-09-06T12:24:30.513Z,62.50
2018-09-06T12:25:30.515Z,57.20
2018-09-06T12:26:30.456Z,67.20
2018-09-06T12:27:30.407Z,63.70
2018-09-06T12:28:30.377Z,55.60
2018-09-06T12:29:30.346Z,57.40
2018-09-06T12:30:30.325Z,52.50
2018-09-06T12:31:40.603Z,50.60
2018-09-06T12:32:30.263Z,52.90
2018-09-06T12:33:30.249Z,56.90
2018-09-06T12:34:30.163Z,55.80
2018-09-06T12:35:30.158Z,53.10
2018-09-06T12:36:30.118Z,63.70
2018-09-06T12:37:30.075Z,55.10
2018-09-06T12:38:30.075Z,60.70
2018-09-06T12:39:29.994Z,63.80
2018-09-06T12:40:29.998Z,63.20
2018-09-06T12:41:29.932Z,53.50
2018-09-06T12:42:29.907Z,51.20
2018-09-06T12:43:29.866Z,50.20
2018-09-06T12:44:29.849Z,51.00
2018-09-06T12:45:29.790Z,49.60
2018-09-06T12:46:29.764Z,50.50
2018-09-06T12:47:29.725Z,51.00